createdAt,value
2023-01-09T00:01:35.515Z,-6.73
2023-01-09T00:04:02.678Z,-6.75
2023-01-09T00:06:29.769Z,-6.77
2023-01-09T00:08:57.101Z,-6.78
2023-01-09T00:11:24.126Z,-6.70
2023-01-09T00:13:51.175Z,-6.60
2023-01-09T00:16:18.709Z,-6.58
2023-01-09T00:18:45.676Z,-6.60
2023-01-09T00:21:13.398Z,-6.61
2023-01-09T00:23:40.758Z,-6.64
2023-01-09T00:26:10.311Z,-6.65
2023-01-09T00:28:37.263Z,-6.66
2023-01-09T00:31:05.304Z,-6.65
2023-01-09T00:33:34.532Z,-6.53
2023-01-09T00:36:01.608Z,-6.45
2023-01-09T00:38:28.685Z,-6.44
2023-01-09T00:40:57.697Z,-6.46
2023-01-09T00:43:27.503Z,-6.48
2023-01-09T00:45:54.581Z,-6.47
2023-01-09T00:48:28.288Z,-6.49
2023-01-09T00:50:57.009Z,-6.52
2023-01-09T00:53:33.196Z,-6.53
2023-01-09T00:56:02.876Z,-6.44
2023-01-09T00:58:29.827Z,-6.32
2023-01-09T01:00:56.793Z,-6.31
2023-01-09T01:03:23.826Z,-6.33
2023-01-09T01:06:09.542Z,-6.34
2023-01-09T01:08:36.546Z,-6.36
2023-01-09T01:11:09.480Z,-6.37
2023-01-09T01:13:37.524Z,-6.38
2023-01-09T01:16:05.626Z,-6.39
2023-01-09T01:18:32.593Z,-6.35
2023-01-09T01:20:59.531Z,-6.22
2023-01-09T01:23:26.620Z,-6.19
2023-01-09T01:25:53.621Z,-6.20
2023-01-09T01:28:20.663Z,-6.22
2023-01-09T01:30:47.593Z,-6.24
2023-01-09T01:33:14.582Z,-6.26
2023-01-09T01:35:41.631Z,-6.29
2023-01-09T01:38:08.580Z,-6.31
2023-01-09T01:40:36.171Z,-6.33
2023-01-09T01:43:03.081Z,-6.34
2023-01-09T01:45:30.437Z,-6.27
2023-01-09T01:48:09.023Z,-6.17
2023-01-09T01:50:43.709Z,-6.16
2023-01-09T01:53:25.377Z,-6.16
2023-01-09T01:56:10.601Z,-6.16
2023-01-09T01:58:42.096Z,-6.18
2023-01-09T02:01:09.173Z,-6.21
2023-01-09T02:03:36.289Z,-6.22
2023-01-09T02:06:05.025Z,-6.23
2023-01-09T02:08:32.234Z,-6.24
2023-01-09T02:10:59.256Z,-6.24
2023-01-09T02:13:26.455Z,-6.25
2023-01-09T02:16:26.704Z,-6.21
2023-01-09T02:19:25.399Z,-6.05
2023-01-09T02:22:12.710Z,-5.98
2023-01-09T02:25:27.639Z,-5.98
2023-01-09T02:27:57.707Z,-5.99
2023-01-09T02:30:27.683Z,-6.00
2023-01-09T02:33:03.839Z,-6.03
2023-01-09T02:36:03.139Z,-6.07
2023-01-09T02:38:42.009Z,-6.10
2023-01-09T02:41:13.723Z,-6.14
2023-01-09T02:43:41.935Z,-6.17
2023-01-09T02:46:20.150Z,-6.18
2023-01-09T02:48:47.113Z,-6.09
2023-01-09T02:51:20.552Z,-6.07
2023-01-09T02:54:01.806Z,-6.11
2023-01-09T02:56:32.010Z,-6.16
2023-01-09T02:59:17.950Z,-6.20
2023-01-09T03:02:01.905Z,-6.23
2023-01-09T03:04:32.742Z,-6.11
2023-01-09T03:07:14.792Z,-6.05
2023-01-09T03:09:41.829Z,-6.08
2023-01-09T03:12:18.406Z,-6.10
2023-01-09T03:14:48.276Z,-6.13
2023-01-09T03:17:22.643Z,-6.16
2023-01-09T03:19:50.008Z,-6.16
2023-01-09T03:22:16.988Z,-6.06
2023-01-09T03:24:44.026Z,-6.03
2023-01-09T03:27:10.967Z,-6.06
2023-01-09T03:29:37.947Z,-6.09
2023-01-09T03:32:05.133Z,-6.13
2023-01-09T03:34:32.058Z,-6.10
2023-01-09T03:36:59.118Z,-6.03
2023-01-09T03:39:26.109Z,-6.06
2023-01-09T03:41:53.076Z,-6.14
2023-01-09T03:44:20.051Z,-6.19
2023-01-09T03:46:47.505Z,-6.16
2023-01-09T03:49:14.780Z,-6.09
2023-01-09T03:51:41.708Z,-6.13
2023-01-09T03:54:08.634Z,-6.16
2023-01-09T03:56:35.755Z,-6.20
2023-01-09T03:59:02.693Z,-6.17
2023-01-09T04:01:29.803Z,-6.11
2023-01-09T04:03:56.801Z,-6.13
2023-01-09T04:06:24.087Z,-6.19
2023-01-09T04:08:51.033Z,-6.24
2023-01-09T04:11:18.300Z,-6.19
2023-01-09T04:13:45.326Z,-6.16
2023-01-09T04:16:12.304Z,-6.19
2023-01-09T04:18:39.229Z,-6.23
2023-01-09T04:21:06.194Z,-6.25
2023-01-09T04:23:33.097Z,-6.19
2023-01-09T04:26:00.014Z,-6.17
2023-01-09T04:28:26.977Z,-6.22
2023-01-09T04:30:53.952Z,-6.27
2023-01-09T06:08:15.713Z,-6.16
2023-01-09T06:10:42.543Z,-5.44
2023-01-09T06:13:09.420Z,-5.29
2023-01-09T06:15:37.938Z,-5.24
2023-01-09T06:18:04.697Z,-5.29
2023-01-09T06:20:32.348Z,-5.35
2023-01-09T06:22:59.090Z,-5.42
2023-01-09T06:25:25.970Z,-5.48
2023-01-09T06:27:53.205Z,-5.46
2023-01-09T06:30:20.139Z,-5.38
2023-01-09T06:32:48.681Z,-5.41
2023-01-09T06:35:19.819Z,-5.47
2023-01-09T06:37:47.562Z,-5.53
2023-01-09T06:40:14.803Z,-5.57
2023-01-09T06:42:45.288Z,-5.51
2023-01-09T06:45:12.742Z,-5.49
2023-01-09T06:47:39.934Z,-5.53
2023-01-09T06:50:08.826Z,-5.57
2023-01-09T06:52:38.775Z,-5.61
2023-01-09T06:55:06.915Z,-5.54
2023-01-09T06:57:33.744Z,-5.50
2023-01-09T07:00:00.637Z,-5.53
2023-01-09T07:02:27.718Z,-5.56
2023-01-09T07:04:54.496Z,-5.51
2023-01-09T07:07:22.022Z,-5.42
2023-01-09T07:09:53.732Z,-5.43
2023-01-09T07:12:20.601Z,-5.47
2023-01-09T07:14:47.366Z,-5.49
2023-01-09T07:17:14.343Z,-5.40
2023-01-09T07:19:41.412Z,-5.37
2023-01-09T07:22:08.295Z,-5.39
2023-01-09T07:24:35.143Z,-5.41
2023-01-09T07:27:02.099Z,-5.33
2023-01-09T07:29:29.285Z,-5.32
2023-01-09T07:31:56.718Z,-5.36
2023-01-09T07:34:23.423Z,-5.38
2023-01-09T07:36:51.658Z,-5.31
2023-01-09T07:39:18.453Z,-5.24
2023-01-09T07:41:45.383Z,-5.25
2023-01-09T07:44:12.425Z,-5.28
2023-01-09T07:46:39.326Z,-5.25
2023-01-09T07:49:06.267Z,-5.17
2023-01-09T07:51:34.456Z,-5.15
2023-01-09T07:54:01.348Z,-5.20
2023-01-09T07:56:28.470Z,-5.22
2023-01-09T07:58:55.209Z,-5.15
2023-01-09T08:01:22.246Z,-5.11
2023-01-09T08:03:49.173Z,-5.14
2023-01-09T08:06:18.300Z,-5.17
2023-01-09T08:08:44.990Z,-5.13
2023-01-09T08:11:11.952Z,-5.03
2023-01-09T08:13:39.288Z,-5.04
2023-01-09T08:16:06.398Z,-5.07
2023-01-09T08:18:33.178Z,-5.09
2023-01-09T08:20:59.953Z,-5.02
2023-01-09T08:23:26.855Z,-4.93
2023-01-09T08:25:53.604Z,-4.94
2023-01-09T08:28:20.654Z,-4.98
2023-01-09T08:30:48.459Z,-4.99
2023-01-09T08:33:18.576Z,-4.92
2023-01-09T08:35:45.350Z,-4.86
2023-01-09T08:38:12.187Z,-4.86
2023-01-09T08:40:39.327Z,-4.87
2023-01-09T08:43:25.150Z,-4.80
2023-01-09T08:46:10.579Z,-4.76
2023-01-09T08:48:37.365Z,-4.78
2023-01-09T08:51:04.344Z,-4.77
2023-01-09T08:53:31.268Z,-4.66
2023-01-09T08:55:58.715Z,-4.62
2023-01-09T08:58:25.465Z,-4.66
2023-01-09T09:00:53.930Z,-4.67
2023-01-09T09:03:21.357Z,-4.60
2023-01-09T09:05:48.185Z,-4.56
2023-01-09T09:08:15.921Z,-4.59
2023-01-09T09:10:42.945Z,-4.61
2023-01-09T09:13:12.241Z,-4.55
2023-01-09T09:15:39.129Z,-4.47
2023-01-09T09:18:06.773Z,-4.47
2023-01-09T09:20:37.638Z,-4.50
2023-01-09T09:23:05.058Z,-4.49
2023-01-09T09:25:32.027Z,-4.39
2023-01-09T09:28:00.517Z,-4.36
2023-01-09T09:30:27.515Z,-4.39
2023-01-09T09:32:54.400Z,-4.40
2023-01-09T09:35:22.057Z,-4.31
2023-01-09T09:37:58.665Z,-4.27
2023-01-09T09:40:42.384Z,-4.30
2023-01-09T09:43:48.139Z,-4.27
2023-01-09T09:46:21.444Z,-4.17
2023-01-09T09:49:14.588Z,-4.17
2023-01-09T09:51:55.422Z,-4.20
2023-01-09T09:54:39.634Z,-4.11
2023-01-09T09:57:10.519Z,-4.10
2023-01-09T09:59:37.402Z,-4.16
2023-01-09T10:02:12.546Z,-4.10
2023-01-09T10:04:43.990Z,-4.04
2023-01-09T10:07:22.723Z,-4.09
2023-01-09T10:10:00.083Z,-4.10
2023-01-09T10:12:29.683Z,-4.02
2023-01-09T10:15:01.768Z,-3.95
2023-01-09T10:17:44.914Z,-3.98
2023-01-09T10:20:24.719Z,-3.98
2023-01-09T10:23:25.353Z,-3.89
2023-01-09T10:25:55.078Z,-3.91
2023-01-09T10:28:37.224Z,-3.94
2023-01-09T10:31:04.855Z,-3.88
2023-01-09T10:33:43.690Z,-3.83
2023-01-09T10:36:41.021Z,-3.86
2023-01-09T10:39:12.695Z,-3.90
2023-01-09T10:41:45.791Z,-3.82
2023-01-09T10:44:36.665Z,-3.78
2023-01-09T10:47:05.509Z,-3.81
2023-01-09T10:49:32.233Z,-3.81
2023-01-09T10:52:17.479Z,-3.72
2023-01-09T10:54:49.171Z,-3.71
2023-01-09T10:57:39.966Z,-3.76
2023-01-09T11:00:13.427Z,-3.72
2023-01-09T11:02:40.296Z,-3.63
2023-01-09T11:05:10.704Z,-3.64
2023-01-09T11:07:38.793Z,-3.70
2023-01-09T11:10:09.185Z,-3.70
2023-01-09T11:12:37.448Z,-3.62
2023-01-09T11:15:18.866Z,-3.62
2023-01-09T11:17:46.773Z,-3.65
2023-01-09T11:20:18.182Z,-3.62
2023-01-09T11:22:49.833Z,-3.58
2023-01-09T11:25:18.105Z,-3.63
2023-01-09T11:28:17.573Z,-3.65
2023-01-09T11:31:11.673Z,-3.58
2023-01-09T11:33:42.432Z,-3.61
2023-01-09T11:36:13.099Z,-3.64
2023-01-09T11:38:52.436Z,-3.58
2023-01-09T11:41:28.500Z,-3.57
2023-01-09T11:43:57.001Z,-3.61
2023-01-09T16:30:59.102Z,-2.28
2023-01-09T16:33:27.564Z,-1.71
2023-01-09T16:35:54.506Z,-1.61
2023-01-09T16:38:21.843Z,-1.56
2023-01-09T16:41:39.895Z,-1.59
2023-01-09T16:44:09.838Z,-1.60
2023-01-09T16:46:43.455Z,-1.57
2023-01-09T16:49:29.585Z,-1.64
2023-01-09T16:51:57.236Z,-1.72
2023-01-09T16:54:24.145Z,-1.69
2023-01-09T16:56:52.408Z,-1.64
2023-01-09T16:59:20.820Z,-1.68
2023-01-09T17:01:48.422Z,-1.74
2023-01-09T17:04:15.803Z,-1.76
2023-01-09T17:06:42.842Z,-1.69
2023-01-09T17:09:14.767Z,-1.67
2023-01-09T17:11:42.104Z,-1.73
2023-01-09T17:14:10.766Z,-1.77
2023-01-09T17:16:37.842Z,-1.72
2023-01-09T17:19:05.060Z,-1.65
2023-01-09T17:21:32.245Z,-1.67
2023-01-09T17:24:18.564Z,-1.72
2023-01-09T18:23:23.344Z,-0.86
2023-01-09T18:25:50.387Z,-0.71
2023-01-09T18:28:18.675Z,-0.79
2023-01-09T18:30:46.863Z,-0.80
2023-01-09T18:33:14.062Z,-0.89
2023-01-09T18:35:42.068Z,-1.00
2023-01-09T18:38:09.054Z,-1.11
2023-01-09T18:40:37.216Z,-1.20
2023-01-09T18:43:06.146Z,-1.20
2023-01-09T18:45:33.241Z,-1.18
2023-01-09T18:48:00.233Z,-1.23
2023-01-09T18:50:27.170Z,-1.29
2023-01-09T18:52:54.305Z,-1.36
2023-01-09T18:55:22.127Z,-1.41
2023-01-09T18:57:49.123Z,-1.35
2023-01-09T19:00:16.360Z,-1.34
2023-01-09T19:02:43.316Z,-1.38
2023-01-09T19:05:10.336Z,-1.42
2023-01-09T19:07:37.244Z,-1.47
2023-01-09T19:10:04.513Z,-1.50
2023-01-09T19:12:31.503Z,-1.49
2023-01-09T19:14:58.544Z,-1.43
2023-01-09T19:17:25.530Z,-1.43
2023-01-09T19:19:52.490Z,-1.47
2023-01-09T19:22:19.766Z,-1.50
2023-01-09T19:24:46.712Z,-1.53
2023-01-09T19:27:13.605Z,-1.56
2023-01-09T19:29:40.642Z,-1.51
2023-01-09T19:32:08.750Z,-1.45
2023-01-09T19:34:35.753Z,-1.47
2023-01-09T19:37:02.741Z,-1.49
2023-01-09T19:39:29.735Z,-1.52
2023-01-09T19:41:56.714Z,-1.54
2023-01-09T19:44:24.639Z,-1.55
2023-01-09T19:46:51.854Z,-1.50
2023-01-09T19:49:19.007Z,-1.45
2023-01-09T19:51:46.227Z,-1.46
2023-01-09T19:54:13.161Z,-1.49
2023-01-09T19:56:40.982Z,-1.51
2023-01-09T19:59:08.451Z,-1.53
2023-01-09T20:01:37.282Z,-1.56
2023-01-09T20:04:08.001Z,-1.54
2023-01-09T20:06:35.202Z,-1.44
2023-01-09T22:40:31.015Z,-2.48
2023-01-09T22:42:57.981Z,-2.21
2023-01-09T22:45:26.165Z,-2.21
2023-01-09T22:47:53.085Z,-2.22
2023-01-09T22:50:19.995Z,-2.24
2023-01-09T22:52:48.743Z,-2.28
2023-01-09T22:55:15.884Z,-2.31
2023-01-09T22:57:42.873Z,-2.34
2023-01-09T23:00:11.783Z,-2.37
2023-01-09T23:02:38.870Z,-2.39
2023-01-09T23:05:06.940Z,-2.41
2023-01-09T23:07:33.899Z,-2.44
2023-01-09T23:10:02.273Z,-2.46
2023-01-09T23:12:29.312Z,-2.49
2023-01-09T23:14:56.196Z,-2.51
2023-01-09T23:17:23.132Z,-2.52
2023-01-09T23:19:50.068Z,-2.54
2023-01-09T23:22:17.067Z,-2.55
2023-01-09T23:24:43.963Z,-2.56
2023-01-09T23:27:11.011Z,-2.57
2023-01-09T23:29:39.714Z,-2.57
2023-01-09T23:32:06.896Z,-2.57
2023-01-09T23:34:34.005Z,-2.57
2023-01-09T23:37:00.984Z,-2.58
2023-01-09T23:39:27.972Z,-2.58
2023-01-09T23:42:13.676Z,-2.58
2023-01-09T23:44:40.675Z,-2.58
2023-01-09T23:47:07.726Z,-2.59
2023-01-09T23:49:34.653Z,-2.59
2023-01-09T23:52:06.217Z,-2.59
2023-01-09T23:54:33.212Z,-2.59
2023-01-09T23:57:00.221Z,-2.59
2023-01-09T23:59:27.203Z,-2.59
